RA00554 ULLI-ULLY

Flight info

Callsign RA00554
Flight time N/A
Altitude 1500
Route ALONG HIGHWAY A118
Aircraft C172/L-S/L

Departure

Time 2026-04-30 14:20
Airport Pulkovo Airport (ULLI)

Arrival

Time N/A
Airport ULLY
Time Latitude Longitude Altitude Speed Heading
2026-04-30 14:15 59.79840 30.28996 71 ft 0 kts 283°
2026-04-30 14:16 59.79844 30.28970 71 ft 10 kts 288°
2026-04-30 14:16 59.79888 30.28824 66 ft 12 kts 358°
2026-04-30 14:17 59.79975 30.28868 66 ft 14 kts 14°
2026-04-30 14:17 59.80078 30.28949 69 ft 17 kts 53°
2026-04-30 14:17 59.80058 30.29143 67 ft 15 kts 106°
2026-04-30 14:17 59.80029 30.29341 62 ft 16 kts 106°
2026-04-30 14:18 59.79993 30.29578 70 ft 19 kts 105°
2026-04-30 14:18 59.79953 30.29850 68 ft 22 kts 107°
2026-04-30 14:18 59.80064 30.30275 66 ft 16 kts 36°
2026-04-30 14:19 59.80184 30.29886 67 ft 44 kts 286°
2026-04-30 14:19 59.80305 30.29060 82 ft 78 kts 286°
2026-04-30 14:19 59.80422 30.27973 260 ft 81 kts 282°
2026-04-30 14:20 59.80529 30.26825 400 ft 87 kts 284°
2026-04-30 14:20 59.80652 30.25625 574 ft 90 kts 285°
2026-04-30 14:20 59.80889 30.22966 829 ft 100 kts 279°
2026-04-30 14:21 59.81006 30.21600 991 ft 101 kts 281°
2026-04-30 14:21 59.81064 30.20223 1124 ft 101 kts 259°
2026-04-30 14:21 59.80506 30.17679 1417 ft 100 kts 246°
2026-04-30 14:22 59.80184 30.16439 1485 ft 104 kts 252°
2026-04-30 14:22 59.80369 30.13555 1500 ft 113 kts 288°
2026-04-30 14:22 59.80623 30.12067 1499 ft 115 kts 288°
2026-04-30 14:23 59.81131 30.09066 1495 ft 110 kts 288°
2026-04-30 14:23 59.81621 30.06266 1481 ft 101 kts 285°
2026-04-30 14:24 59.81852 30.03634 1480 ft 95 kts 278°
2026-04-30 14:24 59.81956 30.02361 1482 ft 92 kts 279°
2026-04-30 14:25 59.82152 29.99803 1483 ft 93 kts 269°
2026-04-30 14:25 59.82036 29.97277 1484 ft 90 kts 266°
2026-04-30 14:26 59.81916 29.94785 1487 ft 93 kts 266°
2026-04-30 14:26 59.81857 29.93495 1492 ft 94 kts 266°
2026-04-30 14:26 59.81730 29.90892 1497 ft 94 kts 266°
2026-04-30 14:27 59.81663 29.89615 1496 ft 92 kts 266°
2026-04-30 14:27 59.81594 29.88350 1495 ft 92 kts 265°
2026-04-30 14:27 59.81532 29.87072 1494 ft 93 kts 266°
2026-04-30 14:28 59.81743 29.84592 1496 ft 92 kts 295°
2026-04-30 14:28 59.82033 29.83464 1497 ft 92 kts 294°
2026-04-30 14:28 59.82434 29.82494 1488 ft 95 kts 324°
2026-04-30 14:28 59.83045 29.81952 1488 ft 96 kts 334°
2026-04-30 14:29 59.84344 29.81247 1490 ft 98 kts 338°
2026-04-30 14:29 59.85447 29.80677 1495 ft 98 kts 338°
2026-04-30 14:30 59.86741 29.77571 1492 ft 91 kts 289°
2026-04-30 14:31 59.87025 29.75142 1497 ft 90 kts 285°
2026-04-30 14:31 59.87395 29.72737 1495 ft 92 kts 285°
2026-04-30 14:31 59.87589 29.71515 1496 ft 93 kts 286°
2026-04-30 14:32 59.88114 29.69206 1492 ft 94 kts 305°
2026-04-30 14:32 59.88519 29.68185 1498 ft 95 kts 303°
2026-04-30 14:32 59.88916 29.67144 1503 ft 96 kts 303°
2026-04-30 14:33 59.89383 29.66191 1502 ft 97 kts 317°
2026-04-30 14:33 59.90675 29.65251 1504 ft 107 kts 357°
2026-04-30 14:33 59.91412 29.65610 1500 ft 111 kts 15°
2026-04-30 14:34 59.92123 29.66229 1499 ft 112 kts 18°
2026-04-30 14:34 59.92838 29.66854 1504 ft 112 kts 18°
2026-04-30 14:34 59.93558 29.67456 1502 ft 111 kts 12°
2026-04-30 14:34 59.94288 29.67896 1501 ft 109 kts
2026-04-30 14:35 59.95496 29.68577 1495 ft 106 kts
2026-04-30 14:35 59.96433 29.69099 1493 ft 105 kts
2026-04-30 14:35 59.97133 29.69487 1487 ft 104 kts
2026-04-30 14:36 59.97829 29.69638 1489 ft 97 kts 330°
2026-04-30 14:36 59.98311 29.68786 1492 ft 93 kts 313°
2026-04-30 14:36 59.98795 29.67918 1493 ft 94 kts 314°
2026-04-30 14:36 59.99284 29.67049 1499 ft 94 kts 314°
2026-04-30 14:37 59.99776 29.66178 1504 ft 95 kts 314°
2026-04-30 14:37 60.00267 29.65306 1503 ft 93 kts 314°
2026-04-30 14:37 60.00718 29.64433 1412 ft 89 kts 312°
2026-04-30 14:37 60.01254 29.63803 1232 ft 90 kts 333°
2026-04-30 14:38 60.01808 29.63323 1101 ft 84 kts 313°
2026-04-30 14:38 60.01911 29.62282 944 ft 85 kts 245°
2026-04-30 14:38 60.01378 29.61753 778 ft 101 kts 176°
2026-04-30 14:38 60.01007 29.62889 580 ft 116 kts 73°
2026-04-30 14:39 60.01317 29.64278 542 ft 105 kts 62°
2026-04-30 14:39 60.01562 29.65567 483 ft 96 kts 75°
2026-04-30 14:39 60.01593 29.66871 379 ft 95 kts 95°
2026-04-30 14:40 60.01495 29.69388 108 ft 91 kts 95°
2026-04-30 14:40 60.01439 29.70586 24 ft 69 kts 94°
2026-04-30 14:40 60.01431 29.71083 6 ft 0 kts 136°
2026-04-30 14:40 60.01438 29.71076 3 ft 4 kts 186°
2026-04-30 14:41 60.01432 29.71036 3 ft 7 kts 279°
2026-04-30 14:41 60.01444 29.70863 2 ft 17 kts 281°
2026-04-30 14:41 60.01449 29.70685 22 ft 12 kts 242°
2026-04-30 14:41 60.01442 29.70651 23 ft 0 kts 274°
2026-04-30 14:42 60.01455 29.70382 28 ft 39 kts 275°
2026-04-30 14:42 60.01481 29.69586 109 ft 68 kts 270°
2026-04-30 14:43 60.01447 29.68601 347 ft 73 kts 252°
2026-04-30 14:43 60.00920 29.68192 479 ft 103 kts 174°
2026-04-30 14:43 60.00183 29.68362 591 ft 106 kts 197°
2026-04-30 14:43 59.99439 29.68249 765 ft 112 kts 188°
2026-04-30 14:44 59.98653 29.68301 935 ft 114 kts 185°
2026-04-30 14:44 59.97860 29.68381 1086 ft 113 kts 184°
2026-04-30 14:44 59.97089 29.68427 1224 ft 109 kts 191°
2026-04-30 14:44 59.96338 29.68301 1353 ft 107 kts 192°
2026-04-30 14:45 59.95600 29.68169 1483 ft 106 kts 193°
2026-04-30 14:45 59.94839 29.68024 1492 ft 113 kts 193°
2026-04-30 14:45 59.94044 29.67865 1501 ft 116 kts 193°
2026-04-30 14:45 59.93232 29.67704 1501 ft 119 kts 193°
2026-04-30 14:46 59.92400 29.67545 1503 ft 122 kts 193°
2026-04-30 14:46 59.91560 29.67374 1503 ft 121 kts 192°
2026-04-30 14:46 59.90724 29.67188 1502 ft 121 kts 193°
2026-04-30 14:46 59.90169 29.67063 1497 ft 121 kts 193°
2026-04-30 14:47 59.89045 29.67123 1494 ft 130 kts 156°
2026-04-30 14:47 59.88444 29.68501 1491 ft 135 kts 122°
2026-04-30 14:47 59.87989 29.70129 1496 ft 135 kts 122°
2026-04-30 14:47 59.87533 29.71758 1490 ft 135 kts 122°
2026-04-30 14:48 59.87162 29.73431 1487 ft 135 kts 104°
2026-04-30 14:48 59.86960 29.75269 1489 ft 137 kts 103°
2026-04-30 14:48 59.86759 29.77125 1492 ft 137 kts 103°
2026-04-30 14:48 59.86507 29.78943 1492 ft 135 kts 115°
2026-04-30 14:49 59.85982 29.80463 1489 ft 133 kts 138°
2026-04-30 14:49 59.85180 29.81246 1487 ft 129 kts 169°
2026-04-30 14:49 59.84319 29.81723 1487 ft 128 kts 170°
2026-04-30 14:49 59.83460 29.82207 1493 ft 128 kts 170°
2026-04-30 14:50 59.82189 29.83713 1490 ft 132 kts 143°
2026-04-30 14:50 59.81601 29.85107 1482 ft 136 kts 110°
2026-04-30 14:51 59.81257 29.88758 1488 ft 134 kts 101°
2026-04-30 14:51 59.81163 29.90594 1482 ft 133 kts 80°
2026-04-30 14:51 59.81577 29.94198 1487 ft 135 kts 75°
2026-04-30 14:52 59.81652 29.96032 1490 ft 133 kts 90°
2026-04-30 14:52 59.81644 29.99682 1482 ft 133 kts 91°
2026-04-30 14:52 59.81621 30.01530 1486 ft 135 kts 91°
2026-04-30 14:53 59.81564 30.05260 1489 ft 134 kts 91°
2026-04-30 14:53 59.81541 30.07095 1490 ft 134 kts 91°
2026-04-30 14:54 59.81419 30.10779 1489 ft 133 kts 110°
2026-04-30 14:54 59.80748 30.14214 1496 ft 133 kts 113°
2026-04-30 14:55 59.79789 30.17301 1493 ft 132 kts 129°
2026-04-30 14:55 59.79252 30.18771 1490 ft 132 kts 129°
2026-04-30 14:55 59.78156 30.21705 1498 ft 133 kts 129°
2026-04-30 14:56 59.77047 30.24626 1498 ft 132 kts 130°
2026-04-30 14:56 59.76317 30.27969 1491 ft 134 kts 109°
2026-04-30 14:57 59.76028 30.29728 1492 ft 134 kts 108°
2026-04-30 14:57 59.75628 30.33312 1420 ft 132 kts 84°
2026-04-30 14:58 59.76634 30.35849 1101 ft 116 kts 21°
2026-04-30 14:58 59.77402 30.36016 860 ft 111 kts 338°
2026-04-30 14:58 59.78254 30.33752 493 ft 102 kts 287°
2026-04-30 14:59 59.78605 30.31128 246 ft 94 kts 287°
2026-04-30 15:00 59.79060 30.28101 104 ft 64 kts 287°
2026-04-30 15:00 59.79271 30.26690 80 ft 38 kts 285°
2026-04-30 15:01 59.79401 30.26390 78 ft 7 kts 19°
2026-04-30 15:01 59.79435 30.26410 81 ft 4 kts 18°
2026-04-30 15:01 59.79521 30.26356 77 ft 12 kts 10°
2026-04-30 15:02 59.79621 30.26414 78 ft 18 kts 17°
2026-04-30 15:02 59.79757 30.26493 76 ft 23 kts 18°
2026-04-30 15:03 59.80321 30.26824 68 ft 32 kts 16°
2026-04-30 15:03 59.80362 30.27102 68 ft 16 kts 108°
2026-04-30 15:04 59.80274 30.27695 61 ft 30 kts 103°
2026-04-30 15:04 59.80105 30.28849 69 ft 24 kts 102°
2026-04-30 15:05 59.79854 30.28900 69 ft 10 kts 105°
2026-04-30 15:06 59.79802 30.29013 69 ft 0 kts 12°